Time;durP1;ratioP1;P1;durP2;ratioP2;P2;SDS_P1;SDS_P2;PMS_P1;PMS_P2;Temp;Humidity;BMP_temperature;BMP_pressure;BME280_temperature;BME280_humidity;BME280_pressure;Samples;Min_cycle;Max_cycle;Signal;HPM_P1;HPM_P2
2022/12/31 00:00:45;;;;;;;5.57;4.13;;;;;;;;;;5032537;28;20197;-82
2022/12/31 00:03:11;;;;;;;4.93;4.45;;;;;;;;;;5035523;28;20174;-83
2022/12/31 00:05:36;;;;;;;6.28;5.03;;;;;;;;;;5035783;28;20190;-82
2022/12/31 00:08:01;;;;;;;6.10;4.38;;;;;;;;;;5034179;28;20186;-82
2022/12/31 00:10:27;;;;;;;5.13;4.30;;;;;;;;;;5035889;28;20198;-82
2022/12/31 00:12:52;;;;;;;3.65;3.25;;;;;;;;;;5033541;28;20265;-82
2022/12/31 00:15:18;;;;;;;12.98;5.20;;;;;;;;;;5040994;28;20216;-82
2022/12/31 00:17:43;;;;;;;3.95;3.55;;;;;;;;;;5049510;28;20186;-82
2022/12/31 00:20:08;;;;;;;5.90;3.85;;;;;;;;;;5046427;22;20234;-76
2022/12/31 00:22:34;;;;;;;4.05;3.30;;;;;;;;;;5030027;28;20265;-75
2022/12/31 00:24:59;;;;;;;4.10;3.00;;;;;;;;;;5029797;28;20249;-76
2022/12/31 00:27:24;;;;;;;4.78;2.58;;;;;;;;;;5029025;28;20174;-76
2022/12/31 00:29:49;;;;;;;6.97;3.78;;;;;;;;;;5022793;28;20630;-75
2022/12/31 00:32:14;;;;;;;6.30;3.30;;;;;;;;;;5011359;28;20186;-75
2022/12/31 00:34:40;;;;;;;3.67;3.25;;;;;;;;;;5010614;28;20226;-75
2022/12/31 00:37:05;;;;;;;4.97;3.83;;;;;;;;;;5012579;28;20290;-75
2022/12/31 00:39:30;;;;;;;4.72;3.30;;;;;;;;;;5011303;28;20277;-75
2022/12/31 00:41:55;;;;;;;6.25;3.28;;;;;;;;;;5010935;28;20581;-75
2022/12/31 00:44:20;;;;;;;4.82;3.83;;;;;;;;;;5011801;28;20242;-76
2022/12/31 00:46:47;;;;;;;6.93;4.03;;;;;;;;;;5011970;28;20645;-76
2022/12/31 00:49:12;;;;;;;5.97;3.78;;;;;;;;;;5010224;28;20210;-75
2022/12/31 00:51:37;;;;;;;6.40;3.92;;;;;;;;;;5010821;28;20553;-75
2022/12/31 00:54:02;;;;;;;8.15;4.47;;;;;;;;;;5011501;28;20657;-74
2022/12/31 00:56:28;;;;;;;6.05;4.10;;;;;;;;;;5011390;28;20190;-75
2022/12/31 00:58:54;;;;;;;4.78;3.95;;;;;;;;;;5007124;28;20178;-75
2022/12/31 01:01:24;;;;;;;5.85;4.43;;;;;;;;;;4998073;28;20176;-75
2022/12/31 01:03:50;;;;;;;6.68;3.92;;;;;;;;;;5001531;28;20171;-76
2022/12/31 01:06:15;;;;;;;5.55;3.85;;;;;;;;;;5012017;28;20179;-75
2022/12/31 01:08:41;;;;;;;6.60;3.47;;;;;;;;;;5010876;28;20668;-76
2022/12/31 01:11:18;;;;;;;5.55;3.55;;;;;;;;;;5010199;28;20226;-75
2022/12/31 01:13:44;;;;;;;5.10;3.70;;;;;;;;;;5011247;28;20321;-75
2022/12/31 01:16:10;;;;;;;4.43;3.03;;;;;;;;;;5013435;28;20206;-75
2022/12/31 01:18:35;;;;;;;3.80;2.85;;;;;;;;;;5011723;28;20194;-74
2022/12/31 01:21:02;;;;;;;3.33;2.80;;;;;;;;;;5008351;28;20219;-75
2022/12/31 01:23:27;;;;;;;3.97;2.70;;;;;;;;;;5009808;28;20633;-75
2022/12/31 01:25:52;;;;;;;5.60;2.83;;;;;;;;;;5011250;28;20229;-75
2022/12/31 01:28:18;;;;;;;5.78;2.75;;;;;;;;;;5010844;28;20253;-75
2022/12/31 01:30:43;;;;;;;4.28;2.00;;;;;;;;;;5008733;28;20202;-74
2022/12/31 01:33:08;;;;;;;4.13;2.00;;;;;;;;;;5009641;28;20182;-75
2022/12/31 01:35:34;;;;;;;3.22;2.03;;;;;;;;;;5011390;28;20234;-75
2022/12/31 01:37:59;;;;;;;2.60;1.90;;;;;;;;;;5006899;28;20175;-74
2022/12/31 01:40:24;;;;;;;4.32;2.13;;;;;;;;;;5013933;28;20198;-75
2022/12/31 01:42:53;;;;;;;7.30;2.60;;;;;;;;;;5013574;28;20182;-75
2022/12/31 01:45:18;;;;;;;7.82;2.70;;;;;;;;;;5013095;28;20186;-75
2022/12/31 01:47:48;;;;;;;4.05;2.08;;;;;;;;;;5015014;28;20175;-74
2022/12/31 01:50:16;;;;;;;4.40;2.75;;;;;;;;;;5014669;28;20235;-75
2022/12/31 01:52:44;;;;;;;6.50;3.17;;;;;;;;;;5012359;28;20209;-75
2022/12/31 01:55:12;;;;;;;4.97;2.75;;;;;;;;;;5013500;28;20179;-75
2022/12/31 01:57:37;;;;;;;6.18;2.63;;;;;;;;;;5014554;28;20190;-74
2022/12/31 02:00:03;;;;;;;7.80;2.58;;;;;;;;;;5014074;28;20187;-75
2022/12/31 02:02:29;;;;;;;5.15;2.47;;;;;;;;;;5006757;28;20191;-75
2022/12/31 02:04:55;;;;;;;6.25;2.50;;;;;;;;;;5012958;28;20532;-75
2022/12/31 02:07:21;;;;;;;2.97;1.45;;;;;;;;;;5012388;28;20197;-75
2022/12/31 02:09:46;;;;;;;4.60;1.15;;;;;;;;;;5013657;28;20286;-75
2022/12/31 02:12:12;;;;;;;6.15;1.10;;;;;;;;;;5013486;28;20175;-75
2022/12/31 02:14:39;;;;;;;3.20;1.40;;;;;;;;;;5013911;28;20684;-75
2022/12/31 02:17:23;;;;;;;6.28;0.90;;;;;;;;;;5015585;28;20648;-74
2022/12/31 02:20:06;;;;;;;2.97;0.80;;;;;;;;;;5010070;28;20219;-75
2022/12/31 02:22:37;;;;;;;5.13;1.00;;;;;;;;;;5012424;28;20237;-74
2022/12/31 02:25:02;;;;;;;3.90;0.93;;;;;;;;;;5009849;28;20210;-74
2022/12/31 02:27:39;;;;;;;1.50;0.73;;;;;;;;;;5012685;28;20183;-75
2022/12/31 02:30:04;;;;;;;1.50;0.60;;;;;;;;;;5012434;28;20214;-74
2022/12/31 02:32:37;;;;;;;2.92;1.10;;;;;;;;;;5012648;28;20175;-74
2022/12/31 02:35:05;;;;;;;2.47;0.90;;;;;;;;;;5014700;28;20178;-74
2022/12/31 02:37:32;;;;;;;1.77;0.65;;;;;;;;;;5013691;28;20233;-74
2022/12/31 02:39:57;;;;;;;1.55;0.80;;;;;;;;;;5011668;28;20237;-73
2022/12/31 02:42:22;;;;;;;10.45;1.52;;;;;;;;;;5012951;28;20206;-74
2022/12/31 02:44:48;;;;;;;9.10;2.15;;;;;;;;;;5013669;28;20255;-74
2022/12/31 02:47:23;;;;;;;5.32;1.10;;;;;;;;;;5013239;28;20633;-75
2022/12/31 02:50:11;;;;;;;3.90;1.42;;;;;;;;;;5005569;28;20277;-75
2022/12/31 02:52:45;;;;;;;4.55;1.20;;;;;;;;;;5010970;28;20241;-74
2022/12/31 02:55:19;;;;;;;2.20;1.10;;;;;;;;;;5008937;28;20617;-75
2022/12/31 02:57:47;;;;;;;5.57;1.08;;;;;;;;;;5011774;28;20199;-74
2022/12/31 03:02:59;;;;;;;3.17;1.30;;;;;;;;;;5004847;28;20185;-74
2022/12/31 03:05:26;;;;;;;5.28;1.27;;;;;;;;;;5013074;28;20568;-75
2022/12/31 03:07:52;;;;;;;5.35;1.63;;;;;;;;;;5012101;28;20195;-75
2022/12/31 03:10:17;;;;;;;3.83;1.10;;;;;;;;;;5010667;28;20211;-75
2022/12/31 03:12:45;;;;;;;3.53;1.20;;;;;;;;;;5011051;28;20450;-75
2022/12/31 03:15:21;;;;;;;1.88;1.17;;;;;;;;;;5012475;28;20242;-75
2022/12/31 03:17:54;;;;;;;3.47;0.98;;;;;;;;;;5011147;28;20181;-75
2022/12/31 03:23:05;;;;;;;2.47;1.08;;;;;;;;;;5009752;28;20709;-74
2022/12/31 03:25:48;;;;;;;3.47;1.10;;;;;;;;;;5010116;28;20183;-75
2022/12/31 03:28:15;;;;;;;4.50;1.20;;;;;;;;;;5009486;28;20183;-75
2022/12/31 03:30:42;;;;;;;1.85;1.08;;;;;;;;;;5012379;28;20225;-75
2022/12/31 03:33:07;;;;;;;6.43;0.90;;;;;;;;;;5012433;28;20171;-74
2022/12/31 03:35:34;;;;;;;5.38;0.77;;;;;;;;;;5011519;28;20185;-74
2022/12/31 03:38:00;;;;;;;3.55;0.95;;;;;;;;;;5012592;28;20167;-75
2022/12/31 03:40:26;;;;;;;5.15;0.90;;;;;;;;;;5012407;28;20221;-74
2022/12/31 03:42:51;;;;;;;4.03;1.15;;;;;;;;;;5011566;28;20178;-75
2022/12/31 03:45:16;;;;;;;2.25;1.17;;;;;;;;;;5012862;28;20182;-74
2022/12/31 03:47:41;;;;;;;2.13;1.00;;;;;;;;;;5012317;28;20182;-75
2022/12/31 03:50:08;;;;;;;9.75;1.85;;;;;;;;;;5011328;28;20722;-75
2022/12/31 03:52:33;;;;;;;3.85;1.30;;;;;;;;;;5015322;28;20175;-75
2022/12/31 03:55:00;;;;;;;4.10;1.15;;;;;;;;;;5011239;28;20600;-75
2022/12/31 03:57:25;;;;;;;3.65;0.90;;;;;;;;;;5012017;28;20190;-75
2022/12/31 03:59:51;;;;;;;3.67;1.08;;;;;;;;;;5012347;28;20217;-75
2022/12/31 04:02:16;;;;;;;4.85;2.05;;;;;;;;;;5010077;28;20179;-76
2022/12/31 04:04:41;;;;;;;2.80;1.13;;;;;;;;;;5011001;28;20179;-76
2022/12/31 04:07:06;;;;;;;2.03;1.55;;;;;;;;;;5012115;28;20183;-76
2022/12/31 04:09:32;;;;;;;6.38;2.03;;;;;;;;;;5011776;28;20207;-76
2022/12/31 04:11:57;;;;;;;3.38;1.67;;;;;;;;;;5011253;28;20171;-75
2022/12/31 04:14:22;;;;;;;3.35;1.83;;;;;;;;;;5012175;28;20659;-76
2022/12/31 04:16:47;;;;;;;4.38;1.50;;;;;;;;;;5014283;28;20649;-75
2022/12/31 04:19:12;;;;;;;2.65;1.70;;;;;;;;;;5009666;28;20207;-75
2022/12/31 04:21:38;;;;;;;2.90;1.75;;;;;;;;;;5011223;28;20572;-75
2022/12/31 04:24:03;;;;;;;4.63;2.05;;;;;;;;;;5011699;28;20254;-75
2022/12/31 04:26:29;;;;;;;3.47;2.03;;;;;;;;;;5012211;28;20183;-75
2022/12/31 04:28:54;;;;;;;4.80;2.03;;;;;;;;;;5010042;28;20608;-76
2022/12/31 04:31:20;;;;;;;4.55;2.28;;;;;;;;;;5010846;28;20178;-76
2022/12/31 04:33:45;;;;;;;3.63;2.80;;;;;;;;;;5010576;28;20207;-76
2022/12/31 04:36:10;;;;;;;4.15;3.28;;;;;;;;;;5011911;28;20672;-76
2022/12/31 04:38:36;;;;;;;5.72;3.88;;;;;;;;;;5012643;28;20179;-75
2022/12/31 04:41:17;;;;;;;5.72;3.97;;;;;;;;;;5012393;28;20214;-76
2022/12/31 04:43:47;;;;;;;5.82;4.57;;;;;;;;;;5006863;28;20174;-76
2022/12/31 04:46:13;;;;;;;5.72;4.15;;;;;;;;;;5011718;28;20186;-76
2022/12/31 04:48:38;;;;;;;8.68;4.65;;;;;;;;;;5011245;28;20184;-76
2022/12/31 04:51:04;;;;;;;6.95;5.03;;;;;;;;;;5011054;28;20698;-76
2022/12/31 04:53:30;;;;;;;7.88;4.57;;;;;;;;;;5011065;28;20201;-76
2022/12/31 04:55:55;;;;;;;6.55;4.82;;;;;;;;;;5011789;28;20167;-76
2022/12/31 04:58:20;;;;;;;5.95;4.32;;;;;;;;;;5011532;28;20170;-77
2022/12/31 05:00:48;;;;;;;6.72;4.80;;;;;;;;;;5008647;28;20225;-76
2022/12/31 05:03:14;;;;;;;6.90;4.93;;;;;;;;;;5008824;28;20171;-77
2022/12/31 05:05:41;;;;;;;6.55;4.50;;;;;;;;;;5011471;28;20175;-76
2022/12/31 05:08:06;;;;;;;6.13;3.63;;;;;;;;;;5011356;28;20253;-76
2022/12/31 05:10:32;;;;;;;4.13;3.05;;;;;;;;;;5011167;28;20290;-76
2022/12/31 05:12:57;;;;;;;4.63;3.55;;;;;;;;;;5011984;28;20171;-76
2022/12/31 05:15:22;;;;;;;3.85;3.25;;;;;;;;;;5014669;28;20707;-76
2022/12/31 05:17:47;;;;;;;4.63;3.17;;;;;;;;;;5013497;28;20183;-76
2022/12/31 05:20:12;;;;;;;5.00;3.05;;;;;;;;;;5015210;28;20230;-77
2022/12/31 05:22:38;;;;;;;4.75;3.55;;;;;;;;;;5014390;28;20549;-76
2022/12/31 05:25:03;;;;;;;3.55;2.63;;;;;;;;;;5014747;28;20183;-76
2022/12/31 05:27:32;;;;;;;4.72;2.75;;;;;;;;;;5014897;28;20218;-77
2022/12/31 05:29:57;;;;;;;3.35;2.38;;;;;;;;;;5013594;28;20198;-76
2022/12/31 05:32:22;;;;;;;3.45;2.50;;;;;;;;;;5013442;28;20186;-76
2022/12/31 05:34:48;;;;;;;2.67;2.30;;;;;;;;;;5013781;28;20171;-76
2022/12/31 05:37:13;;;;;;;3.17;2.40;;;;;;;;;;5016206;28;20185;-76
2022/12/31 05:39:38;;;;;;;3.55;2.05;;;;;;;;;;5014623;28;20680;-76
2022/12/31 05:42:03;;;;;;;5.25;2.60;;;;;;;;;;5012879;28;20561;-76
2022/12/31 05:44:28;;;;;;;3.22;2.05;;;;;;;;;;5013631;28;20323;-77
2022/12/31 05:46:54;;;;;;;3.40;3.10;;;;;;;;;;5008788;28;20708;-77
2022/12/31 05:49:19;;;;;;;2.67;2.35;;;;;;;;;;5014426;28;20249;-76
2022/12/31 05:51:44;;;;;;;1.92;1.70;;;;;;;;;;5013825;28;20175;-76
2022/12/31 05:54:09;;;;;;;2.80;1.90;;;;;;;;;;5014936;28;20686;-76
2022/12/31 05:56:35;;;;;;;1.67;1.58;;;;;;;;;;5014300;28;20225;-76
2022/12/31 05:59:00;;;;;;;2.65;2.00;;;;;;;;;;5011407;28;20218;-76
2022/12/31 06:01:25;;;;;;;2.80;1.90;;;;;;;;;;5013702;28;20183;-75
2022/12/31 06:03:50;;;;;;;2.67;2.10;;;;;;;;;;5011372;28;20254;-74
2022/12/31 06:06:15;;;;;;;3.15;2.30;;;;;;;;;;5013881;28;20175;-76
2022/12/31 06:08:41;;;;;;;3.05;2.45;;;;;;;;;;5014013;28;20661;-76
2022/12/31 06:11:06;;;;;;;4.38;3.38;;;;;;;;;;5013252;28;20206;-76
2022/12/31 06:13:31;;;;;;;4.22;3.60;;;;;;;;;;5013751;28;20225;-76
2022/12/31 06:15:56;;;;;;;4.68;3.50;;;;;;;;;;5014118;28;20185;-76
2022/12/31 06:18:21;;;;;;;4.45;3.88;;;;;;;;;;5014335;28;20179;-76
2022/12/31 06:23:14;;;;;;;6.90;5.45;;;;;;;;;;4996401;28;20223;-82
2022/12/31 06:25:39;;;;;;;7.78;6.30;;;;;;;;;;5015747;28;20193;-82
2022/12/31 06:28:04;;;;;;;9.57;7.60;;;;;;;;;;4991437;28;20195;-81
2022/12/31 06:30:30;;;;;;;10.52;8.30;;;;;;;;;;5004230;28;20226;-82
2022/12/31 06:32:55;;;;;;;9.15;7.68;;;;;;;;;;4994817;28;20182;-82
2022/12/31 06:35:20;;;;;;;9.43;7.05;;;;;;;;;;5001460;28;20229;-82
2022/12/31 06:37:46;;;;;;;11.38;7.05;;;;;;;;;;5000385;28;20179;-82
2022/12/31 06:40:11;;;;;;;9.00;6.50;;;;;;;;;;4993656;28;20199;-82
2022/12/31 06:42:36;;;;;;;7.75;5.90;;;;;;;;;;4995460;28;20839;-81
2022/12/31 06:45:01;;;;;;;8.75;5.70;;;;;;;;;;5005443;28;20199;-81
2022/12/31 06:47:27;;;;;;;6.88;4.82;;;;;;;;;;4996290;28;20179;-81
2022/12/31 06:49:52;;;;;;;5.22;4.15;;;;;;;;;;4994262;28;20767;-82
2022/12/31 06:52:17;;;;;;;4.95;3.67;;;;;;;;;;4991690;28;20196;-81
2022/12/31 06:54:42;;;;;;;4.55;2.80;;;;;;;;;;5006060;28;20181;-81
2022/12/31 06:57:08;;;;;;;4.15;2.60;;;;;;;;;;5011861;28;20379;-80
2022/12/31 06:59:34;;;;;;;2.00;1.73;;;;;;;;;;4994553;28;20641;-82
2022/12/31 07:02:14;;;;;;;2.70;0.73;;;;;;;;;;5002610;28;20214;-81
2022/12/31 07:04:58;;;;;;;0.45;0.40;;;;;;;;;;5004749;28;20254;-80
2022/12/31 07:07:27;;;;;;;0.22;0.22;;;;;;;;;;4998011;28;20566;-81
2022/12/31 07:10:16;;;;;;;0.80;0.35;;;;;;;;;;4993565;28;20591;-80
2022/12/31 07:12:56;;;;;;;1.17;0.40;;;;;;;;;;5005170;28;20266;-81
2022/12/31 07:15:35;;;;;;;0.40;0.20;;;;;;;;;;5003613;28;20190;-81
2022/12/31 07:18:19;;;;;;;1.00;0.75;;;;;;;;;;5009265;28;20208;-80
2022/12/31 07:20:44;;;;;;;0.52;0.20;;;;;;;;;;4988759;28;20188;-81
2022/12/31 07:23:10;;;;;;;0.95;0.30;;;;;;;;;;5001228;28;20183;-81
2022/12/31 07:25:36;;;;;;;0.35;0.30;;;;;;;;;;4998387;28;20183;-81
2022/12/31 07:28:01;;;;;;;0.82;0.30;;;;;;;;;;5000095;28;20182;-81
2022/12/31 07:30:33;;;;;;;0.63;0.50;;;;;;;;;;5003798;28;20211;-81
2022/12/31 07:33:01;;;;;;;1.40;0.40;;;;;;;;;;4992340;28;20269;-82
2022/12/31 07:35:44;;;;;;;1.00;0.40;;;;;;;;;;4994069;28;20645;-82
2022/12/31 07:38:13;;;;;;;1.38;0.50;;;;;;;;;;5004574;28;20171;-81
2022/12/31 07:40:55;;;;;;;1.95;0.47;;;;;;;;;;5003326;28;20203;-81
2022/12/31 07:43:39;;;;;;;1.27;0.90;;;;;;;;;;5002701;28;20181;-82
2022/12/31 07:46:07;;;;;;;1.55;1.02;;;;;;;;;;4994631;28;20533;-82
2022/12/31 07:48:32;;;;;;;1.10;0.85;;;;;;;;;;4992789;28;20183;-81
2022/12/31 07:50:58;;;;;;;2.78;1.30;;;;;;;;;;4992546;28;20214;-82
2022/12/31 07:53:24;;;;;;;2.55;2.17;;;;;;;;;;5002716;28;20171;-83
2022/12/31 07:55:52;;;;;;;2.90;1.40;;;;;;;;;;5002403;28;20191;-81
2022/12/31 07:58:23;;;;;;;2.00;1.50;;;;;;;;;;5006841;28;20179;-80
2022/12/31 08:00:50;;;;;;;2.13;1.35;;;;;;;;;;4992779;28;20223;-79
2022/12/31 08:03:23;;;;;;;2.25;1.15;;;;;;;;;;4994945;28;20649;-80
2022/12/31 08:05:53;;;;;;;3.10;1.42;;;;;;;;;;4995945;28;20176;-80
2022/12/31 08:08:22;;;;;;;1.27;1.00;;;;;;;;;;5019408;28;20605;-80
2022/12/31 08:10:47;;;;;;;1.38;0.93;;;;;;;;;;4991305;28;20633;-81
2022/12/31 08:13:12;;;;;;;1.40;1.10;;;;;;;;;;4996800;28;20187;-81
2022/12/31 08:15:38;;;;;;;2.80;0.80;;;;;;;;;;5003678;28;20183;-82
2022/12/31 08:18:04;;;;;;;1.08;0.93;;;;;;;;;;4998001;28;20179;-83
2022/12/31 08:20:31;;;;;;;1.58;1.10;;;;;;;;;;4994326;28;20203;-82
2022/12/31 08:23:18;;;;;;;2.40;1.10;;;;;;;;;;4996922;28;20194;-82
2022/12/31 08:26:05;;;;;;;3.15;1.40;;;;;;;;;;5004570;28;20262;-82
2022/12/31 08:28:30;;;;;;;1.00;0.80;;;;;;;;;;5011568;28;20180;-82
2022/12/31 08:30:59;;;;;;;1.13;0.80;;;;;;;;;;4995227;28;20246;-82
2022/12/31 08:33:33;;;;;;;1.17;0.88;;;;;;;;;;4992788;28;20186;-83
2022/12/31 08:36:01;;;;;;;2.72;1.15;;;;;;;;;;4994671;28;20188;-83
2022/12/31 08:38:26;;;;;;;1.98;0.82;;;;;;;;;;4997712;28;20180;-81
2022/12/31 08:41:02;;;;;;;2.65;1.63;;;;;;;;;;4997083;28;20214;-82
2022/12/31 08:43:27;;;;;;;2.45;1.05;;;;;;;;;;4995469;28;20186;-83
2022/12/31 08:45:53;;;;;;;1.02;0.70;;;;;;;;;;4995541;28;20179;-82
2022/12/31 08:48:27;;;;;;;1.77;0.90;;;;;;;;;;4994500;28;20183;-83
2022/12/31 08:50:53;;;;;;;3.13;0.70;;;;;;;;;;4993730;28;20692;-82
2022/12/31 08:53:18;;;;;;;1.88;0.85;;;;;;;;;;5008807;28;20175;-83
2022/12/31 08:55:45;;;;;;;2.05;0.80;;;;;;;;;;5014179;28;20183;-82
2022/12/31 08:58:25;;;;;;;5.07;1.00;;;;;;;;;;4996948;28;20204;-83
2022/12/31 09:00:53;;;;;;;1.90;0.93;;;;;;;;;;4991700;28;20212;-83
2022/12/31 09:03:18;;;;;;;2.70;0.70;;;;;;;;;;4992443;28;20195;-81
2022/12/31 09:05:46;;;;;;;2.08;0.95;;;;;;;;;;5000382;28;20179;-82
2022/12/31 09:08:17;;;;;;;2.38;1.00;;;;;;;;;;5005942;28;20183;-80
2022/12/31 09:10:46;;;;;;;3.03;1.13;;;;;;;;;;4990818;28;20253;-81
2022/12/31 09:13:14;;;;;;;4.63;1.15;;;;;;;;;;4995071;28;20564;-81
2022/12/31 09:15:55;;;;;;;1.50;0.95;;;;;;;;;;4999155;28;20642;-80
2022/12/31 09:18:20;;;;;;;3.90;1.42;;;;;;;;;;5017362;28;20675;-81
2022/12/31 09:20:45;;;;;;;2.75;1.30;;;;;;;;;;5001888;28;20214;-81
2022/12/31 09:23:11;;;;;;;2.72;1.67;;;;;;;;;;5001355;28;20267;-81
2022/12/31 09:25:50;;;;;;;1.92;1.35;;;;;;;;;;4999693;28;20568;-81
2022/12/31 09:28:20;;;;;;;3.30;1.38;;;;;;;;;;4988594;28;20207;-80
2022/12/31 09:30:51;;;;;;;3.78;1.63;;;;;;;;;;4986621;28;20275;-81
2022/12/31 09:33:19;;;;;;;3.30;1.35;;;;;;;;;;4991368;28;20235;-80
2022/12/31 09:35:55;;;;;;;5.20;3.00;;;;;;;;;;4998652;28;20172;-79
2022/12/31 09:38:23;;;;;;;6.25;3.03;;;;;;;;;;4991586;28;20650;-81
2022/12/31 09:40:55;;;;;;;6.60;3.95;;;;;;;;;;4990281;28;20246;-79
2022/12/31 09:43:20;;;;;;;4.78;3.03;;;;;;;;;;4993321;28;20175;-79
2022/12/31 09:45:48;;;;;;;5.53;1.35;;;;;;;;;;4992823;28;20176;-79
2022/12/31 09:48:38;;;;;;;4.25;1.20;;;;;;;;;;4999928;28;20606;-79
2022/12/31 09:51:16;;;;;;;4.35;1.55;;;;;;;;;;4999009;28;20211;-79
2022/12/31 09:53:53;;;;;;;1.75;1.08;;;;;;;;;;4992278;28;20648;-78
2022/12/31 09:56:37;;;;;;;1.80;0.93;;;;;;;;;;5003688;28;20236;-78
2022/12/31 09:59:09;;;;;;;4.00;3.65;;;;;;;;;;4994370;28;20172;-79
2022/12/31 10:01:51;;;;;;;3.40;1.55;;;;;;;;;;4992724;28;20191;-79
2022/12/31 10:04:35;;;;;;;2.10;1.20;;;;;;;;;;4990347;28;20211;-80
2022/12/31 10:07:00;;;;;;;1.92;1.50;;;;;;;;;;4999213;28;20540;-79
2022/12/31 10:09:29;;;;;;;3.75;1.60;;;;;;;;;;4996249;28;20199;-79
2022/12/31 10:12:05;;;;;;;2.30;1.10;;;;;;;;;;4996835;28;20190;-77
2022/12/31 10:14:49;;;;;;;2.00;1.10;;;;;;;;;;5004309;28;20179;-81
2022/12/31 10:17:21;;;;;;;5.32;1.70;;;;;;;;;;4995826;28;20179;-80
2022/12/31 10:20:15;;;;;;;2.75;1.45;;;;;;;;;;4994985;28;20196;-80
2022/12/31 10:22:54;;;;;;;3.13;1.90;;;;;;;;;;5005606;28;20290;-79
2022/12/31 10:25:39;;;;;;;7.05;3.53;;;;;;;;;;4993841;28;20188;-78
2022/12/31 10:28:29;;;;;;;4.53;2.10;;;;;;;;;;4992989;28;20234;-79
2022/12/31 10:31:14;;;;;;;4.32;1.98;;;;;;;;;;4990988;28;20219;-79
2022/12/31 10:34:07;;;;;;;3.70;1.50;;;;;;;;;;4994291;28;20179;-79
2022/12/31 10:36:52;;;;;;;3.20;1.83;;;;;;;;;;4995616;28;20211;-80
2022/12/31 10:39:23;;;;;;;2.58;1.08;;;;;;;;;;4996429;28;20719;-79
2022/12/31 10:42:07;;;;;;;1.98;1.10;;;;;;;;;;4994013;28;20184;-78
2022/12/31 10:44:33;;;;;;;2.55;1.30;;;;;;;;;;4993539;28;20188;-78
2022/12/31 10:47:10;;;;;;;6.72;1.73;;;;;;;;;;4993876;28;20184;-79
2022/12/31 10:49:49;;;;;;;4.85;1.58;;;;;;;;;;4991633;28;20277;-80
2022/12/31 10:52:33;;;;;;;6.70;2.28;;;;;;;;;;4987999;28;20183;-80
2022/12/31 10:55:16;;;;;;;6.65;3.35;;;;;;;;;;4996844;28;20171;-80
2022/12/31 10:57:47;;;;;;;4.05;2.22;;;;;;;;;;4999536;28;20659;-77
2022/12/31 11:00:15;;;;;;;7.13;2.10;;;;;;;;;;5001100;28;20685;-78
2022/12/31 11:03:06;;;;;;;2.83;1.33;;;;;;;;;;4995614;28;20177;-80
2022/12/31 11:05:43;;;;;;;3.65;1.52;;;;;;;;;;4994838;28;20298;-81
2022/12/31 11:08:11;;;;;;;3.92;1.70;;;;;;;;;;4992545;28;20178;-80
2022/12/31 11:10:36;;;;;;;2.50;1.60;;;;;;;;;;4992202;28;20286;-81
2022/12/31 11:13:11;;;;;;;4.20;1.60;;;;;;;;;;4992947;28;20255;-79
2022/12/31 11:15:45;;;;;;;7.70;1.65;;;;;;;;;;5000475;28;20179;-79
2022/12/31 11:18:23;;;;;;;3.17;1.70;;;;;;;;;;4996992;28;20706;-79
2022/12/31 11:20:49;;;;;;;3.78;2.25;;;;;;;;;;4985640;28;20731;-80
2022/12/31 11:23:21;;;;;;;5.45;1.75;;;;;;;;;;4993644;28;20262;-80
2022/12/31 11:25:47;;;;;;;8.15;2.20;;;;;;;;;;4986013;28;20184;-80
2022/12/31 11:28:33;;;;;;;5.68;2.30;;;;;;;;;;4992370;28;20182;-80
2022/12/31 11:31:10;;;;;;;2.50;1.98;;;;;;;;;;4995710;28;20226;-79
2022/12/31 11:33:54;;;;;;;7.25;1.95;;;;;;;;;;4993025;28;20642;-77
2022/12/31 11:36:22;;;;;;;8.57;1.70;;;;;;;;;;4992106;28;20617;-78
2022/12/31 11:38:52;;;;;;;5.90;1.73;;;;;;;;;;4993784;28;20168;-78
2022/12/31 11:41:33;;;;;;;3.88;1.20;;;;;;;;;;4992256;28;20242;-80
2022/12/31 11:44:13;;;;;;;4.38;1.75;;;;;;;;;;4996494;28;20185;-79
2022/12/31 11:46:42;;;;;;;2.78;1.27;;;;;;;;;;4997605;28;20221;-80
2022/12/31 11:49:08;;;;;;;4.40;1.50;;;;;;;;;;5019133;28;20558;-78
2022/12/31 11:51:36;;;;;;;3.77;2.60;;;;;;;;;;4990284;28;20194;-77
2022/12/31 11:54:20;;;;;;;4.05;1.50;;;;;;;;;;4993487;28;20493;-80
2022/12/31 11:56:49;;;;;;;2.90;1.50;;;;;;;;;;4985157;28;20219;-79
2022/12/31 11:59:14;;;;;;;4.22;1.40;;;;;;;;;;4992354;28;20524;-80
2022/12/31 12:01:59;;;;;;;2.75;1.55;;;;;;;;;;4999069;28;20192;-80
2022/12/31 12:04:25;;;;;;;3.65;1.50;;;;;;;;;;4988900;28;20183;-79
2022/12/31 12:06:51;;;;;;;5.75;1.40;;;;;;;;;;5002119;28;20180;-79
2022/12/31 12:09:20;;;;;;;6.22;2.42;;;;;;;;;;4993485;28;20187;-79
2022/12/31 12:11:56;;;;;;;7.35;2.90;;;;;;;;;;4995948;28;20172;-79
2022/12/31 12:14:32;;;;;;;6.32;2.47;;;;;;;;;;4991208;28;20592;-79
2022/12/31 12:16:58;;;;;;;4.45;2.63;;;;;;;;;;4998260;28;20187;-78
2022/12/31 12:19:25;;;;;;;6.50;2.30;;;;;;;;;;4994926;28;20558;-78
2022/12/31 12:21:50;;;;;;;3.60;1.98;;;;;;;;;;4991000;28;20285;-77
2022/12/31 12:24:20;;;;;;;2.70;1.55;;;;;;;;;;4991355;28;20670;-78
2022/12/31 12:26:45;;;;;;;5.65;1.52;;;;;;;;;;4991824;28;20179;-79
2022/12/31 12:29:14;;;;;;;9.02;3.25;;;;;;;;;;4990241;28;20676;-79
2022/12/31 12:31:40;;;;;;;3.75;1.42;;;;;;;;;;4995530;28;20198;-78
2022/12/31 12:34:19;;;;;;;4.72;1.83;;;;;;;;;;4995162;28;20178;-78
2022/12/31 12:36:45;;;;;;;2.95;1.17;;;;;;;;;;4999595;28;20258;-78
2022/12/31 12:39:17;;;;;;;7.25;2.50;;;;;;;;;;4992218;28;20178;-78
2022/12/31 12:41:42;;;;;;;11.57;5.20;;;;;;;;;;4991222;28;20527;-78
2022/12/31 12:44:13;;;;;;;5.22;1.40;;;;;;;;;;4991641;28;20186;-78
2022/12/31 12:46:43;;;;;;;7.45;1.45;;;;;;;;;;5000317;28;20172;-78
2022/12/31 12:49:21;;;;;;;8.27;2.45;;;;;;;;;;4991679;28;20187;-78
2022/12/31 12:52:05;;;;;;;9.00;2.97;;;;;;;;;;4982626;28;20164;-79
2022/12/31 12:54:30;;;;;;;3.40;1.52;;;;;;;;;;5022924;28;20182;-78
2022/12/31 12:57:01;;;;;;;7.10;2.33;;;;;;;;;;4997110;28;20677;-77
2022/12/31 12:59:45;;;;;;;2.78;1.65;;;;;;;;;;4989511;28;20248;-76
2022/12/31 13:02:19;;;;;;;7.43;1.58;;;;;;;;;;5014537;28;20229;-79
2022/12/31 13:04:44;;;;;;;4.63;1.38;;;;;;;;;;4995893;28;20181;-79
2022/12/31 13:07:28;;;;;;;4.75;1.35;;;;;;;;;;4993643;28;20179;-79
2022/12/31 13:10:11;;;;;;;6.10;2.42;;;;;;;;;;4991128;28;20594;-79
2022/12/31 13:12:42;;;;;;;6.32;1.70;;;;;;;;;;4995555;28;20176;-78
2022/12/31 13:15:15;;;;;;;5.13;2.75;;;;;;;;;;4989774;28;20164;-79
2022/12/31 13:17:59;;;;;;;5.53;2.13;;;;;;;;;;5006848;28;20561;-79
2022/12/31 13:20:34;;;;;;;8.20;2.40;;;;;;;;;;4991452;28;20268;-79
2022/12/31 13:23:03;;;;;;;2.67;1.50;;;;;;;;;;4994333;28;20198;-78
2022/12/31 13:25:31;;;;;;;5.05;1.40;;;;;;;;;;4994633;28;20665;-78
2022/12/31 13:28:01;;;;;;;4.68;2.00;;;;;;;;;;4998825;28;20294;-79
2022/12/31 13:30:35;;;;;;;4.80;2.40;;;;;;;;;;4991287;28;20540;-79
2022/12/31 13:33:06;;;;;;;5.70;2.05;;;;;;;;;;4990864;28;20258;-77
2022/12/31 13:35:50;;;;;;;4.00;2.15;;;;;;;;;;4994011;28;20568;-77
2022/12/31 13:38:21;;;;;;;5.97;2.85;;;;;;;;;;4991374;28;20175;-77
2022/12/31 13:40:55;;;;;;;4.15;2.53;;;;;;;;;;4997311;28;20210;-77
2022/12/31 13:43:21;;;;;;;3.10;2.13;;;;;;;;;;5002441;28;20178;-78
2022/12/31 13:45:50;;;;;;;3.10;1.70;;;;;;;;;;4996044;28;20531;-78
2022/12/31 13:48:18;;;;;;;5.65;1.77;;;;;;;;;;4995465;28;20207;-80
2022/12/31 13:50:50;;;;;;;3.63;2.30;;;;;;;;;;4993883;28;20222;-78
2022/12/31 13:53:20;;;;;;;5.25;2.42;;;;;;;;;;5004557;28;20245;-78
2022/12/31 13:55:50;;;;;;;3.47;2.03;;;;;;;;;;5001638;28;20167;-78
2022/12/31 13:58:18;;;;;;;6.35;2.45;;;;;;;;;;4996314;28;20208;-78
2022/12/31 14:00:46;;;;;;;7.22;3.92;;;;;;;;;;4991555;28;20196;-78
2022/12/31 14:03:21;;;;;;;2.67;1.35;;;;;;;;;;4996347;28;20207;-77
2022/12/31 14:05:49;;;;;;;5.53;1.92;;;;;;;;;;4994227;28;20175;-77
2022/12/31 14:08:14;;;;;;;3.05;1.50;;;;;;;;;;5002059;28;20179;-78
2022/12/31 14:10:47;;;;;;;2.33;1.30;;;;;;;;;;4996422;28;20211;-78
2022/12/31 14:13:31;;;;;;;3.03;1.92;;;;;;;;;;4995236;28;20176;-78
2022/12/31 14:16:02;;;;;;;5.45;2.42;;;;;;;;;;4990107;28;20708;-77
2022/12/31 14:18:34;;;;;;;4.93;1.60;;;;;;;;;;4995275;28;20571;-78
2022/12/31 14:20:59;;;;;;;2.25;1.50;;;;;;;;;;4993425;28;20207;-79
2022/12/31 14:23:43;;;;;;;5.97;2.20;;;;;;;;;;5003557;28;20563;-79
2022/12/31 14:26:29;;;;;;;7.13;2.10;;;;;;;;;;4999718;28;20427;-78
2022/12/31 14:28:54;;;;;;;3.38;1.20;;;;;;;;;;4991824;28;20253;-79
2022/12/31 14:31:26;;;;;;;4.85;1.58;;;;;;;;;;4989948;28;20311;-79
2022/12/31 14:34:04;;;;;;;4.55;1.50;;;;;;;;;;4993986;28;20243;-79
2022/12/31 14:36:38;;;;;;;4.93;1.70;;;;;;;;;;4994274;28;20237;-77
2022/12/31 14:39:20;;;;;;;8.48;2.38;;;;;;;;;;5002840;28;20325;-77
2022/12/31 14:41:45;;;;;;;5.82;1.60;;;;;;;;;;4993640;28;20172;-77
2022/12/31 14:44:23;;;;;;;5.80;2.00;;;;;;;;;;4992326;28;20192;-77
2022/12/31 14:46:48;;;;;;;6.38;2.53;;;;;;;;;;4992915;28;20179;-78
2022/12/31 14:49:32;;;;;;;3.40;2.00;;;;;;;;;;4992163;28;20175;-77
2022/12/31 14:52:08;;;;;;;7.55;3.10;;;;;;;;;;5004025;28;20186;-77
2022/12/31 14:54:34;;;;;;;6.80;2.97;;;;;;;;;;4999978;28;20250;-77
2022/12/31 14:57:08;;;;;;;8.23;3.15;;;;;;;;;;4992203;28;20183;-77
2022/12/31 14:59:33;;;;;;;7.45;3.60;;;;;;;;;;4993323;28;20179;-77
2022/12/31 15:01:58;;;;;;;8.60;3.80;;;;;;;;;;4990725;28;20183;-77
2022/12/31 15:04:40;;;;;;;7.03;2.42;;;;;;;;;;4992118;28;20258;-77
2022/12/31 15:07:15;;;;;;;6.05;2.63;;;;;;;;;;4998261;28;20199;-77